Aérodrome :
LOGIN :

S'inscrire | Disclaimer

   EN    FR    IT 

 










Légende :    VFR   VFR Marginal   IFR   IFR Intensif   IFR Très Intensif
Visi : 
Plafond : 
>= 8 km
>= 3000ft
5 à 8 km
1000 à 3000 ft
1500m à 5 km
500 à 1000 ft
800 à 1500m
200 à 500 ft
< 800m
< 200 ft
Symboles :   Orages  Brouillard  Fortes neiges  Fortes précipitations  Vent > 20 kt
SIGMETs :   Divers  Orages  Givrage  Turbulence  Onde Orograph.  Cendres Volcan.







- Altitude de l'aérodrome : 247 ft
- Code IATA : BLL


EKBI - Billund

DERNIER METAR :
  • 171220Z AUTO 25013KT 220V290 9999 FEW035/// 20/12 Q1021

METARs EXPIRÉS :
  • 171150Z AUTO 23013KT 200V260 9999 BKN033/// 20/12 Q1021
  • 171120Z AUTO 24013KT 9999 FEW031/// 20/12 Q1021
  • 171050Z AUTO 23013KT 190V260 9999 SCT030/// SCT049/// 20/12 Q1021
  • 171020Z AUTO 23012KT 200V260 9999 FEW028/// 20/12 Q1021
  • 170950Z AUTO 21013KT 180V250 9999 SCT027/// 19/13 Q1021

TAF TAF EKBI
Valide du 17 à 12h jusqu'au 18 à 12h UTC


171104Z 1712/1812 23010KT 9999 SCT030
BECMG 1717/1720 12008KT
TEMPO 1804/1812 SCT040CB
Pas de NOTAMs connus pour ce terrain.



MET'MAP, la Météo Aéronautique d'un coup d'oeil ! - Copyright ORBIFLY Décembre 2007 - Disclaimer

ORBIFLY MET'MAP TEAM :

Programmation & Développement : Alexandra Zaïnal
Conception & Développement : Baudouin d'Aumeries
Co-Programmation & Développement : Marc-Olivier Méhu
Soutien technique & logistique : Manuel Goepfert

Contact : metmap@orbifly.com




SOURCES & CREDITS :

   NOAA